Willards, Maryland
Current Conditions -  °F | °C
As of 11:54 AM on Friday 24 Oct 2014 (Local Time) from KSBY Reporting Station
Few Clouds Few Clouds  
Wind Chill: 66°   Ceiling: Unl
Heat Index: 66°   Visibility: 10mi
Dew Point: 46°   Wind: 16mph
Humidity: 48%   Direction: 320°NW
Pressure: 29.91"   Gusts: 23mph
Location:  38.39°N, 75.35°W
Report Text: KSBY 241554Z 32014G20KT 10SM FEW038 19/08 A2991 RMK AO2 SLP130 T01890078
Loading
Personal Weather Stations






























Interactive Weather Map
Tropical Storm Tracking
New forecast layout! Learn more

10-Day Weather Forecast

Advertisements
Track Severe Weather on mobile